sensor_id;sensor_type;location;lat;lon;timestamp;temperature;humidity
70676;DHT22;59069;52.242;20.900;2023-11-21T00:02:14;1.45;88.33
70676;DHT22;59069;52.242;20.900;2023-11-21T00:04:40;1.44;88.27
70676;DHT22;59069;52.242;20.900;2023-11-21T00:07:05;1.40;88.41
70676;DHT22;59069;52.242;20.900;2023-11-21T00:09:34;1.40;88.48
70676;DHT22;59069;52.242;20.900;2023-11-21T00:12:00;1.34;88.51
70676;DHT22;59069;52.242;20.900;2023-11-21T00:14:25;1.32;88.51
70676;DHT22;59069;52.242;20.900;2023-11-21T00:16:51;1.32;88.55
70676;DHT22;59069;52.242;20.900;2023-11-21T00:19:16;1.35;88.44
70676;DHT22;59069;52.242;20.900;2023-11-21T00:21:42;1.34;88.36
70676;DHT22;59069;52.242;20.900;2023-11-21T00:24:12;1.35;88.37
70676;DHT22;59069;52.242;20.900;2023-11-21T00:26:39;1.34;88.39
70676;DHT22;59069;52.242;20.900;2023-11-21T00:29:05;1.31;88.36
70676;DHT22;59069;52.242;20.900;2023-11-21T00:31:34;1.31;88.26
70676;DHT22;59069;52.242;20.900;2023-11-21T00:34:02;1.31;88.33
70676;DHT22;59069;52.242;20.900;2023-11-21T00:36:31;1.24;88.24
70676;DHT22;59069;52.242;20.900;2023-11-21T00:38:58;1.20;88.37
70676;DHT22;59069;52.242;20.900;2023-11-21T00:41:24;1.18;88.51
70676;DHT22;59069;52.242;20.900;2023-11-21T00:43:53;1.20;88.53
70676;DHT22;59069;52.242;20.900;2023-11-21T00:46:19;1.11;88.52
70676;DHT22;59069;52.242;20.900;2023-11-21T00:48:44;1.10;88.74
70676;DHT22;59069;52.242;20.900;2023-11-21T00:51:10;1.10;88.82
70676;DHT22;59069;52.242;20.900;2023-11-21T00:53:35;1.11;88.85
70676;DHT22;59069;52.242;20.900;2023-11-21T00:56:01;1.13;88.86
70676;DHT22;59069;52.242;20.900;2023-11-21T00:58:28;1.13;88.83
70676;DHT22;59069;52.242;20.900;2023-11-21T01:00:53;1.13;88.71
70676;DHT22;59069;52.242;20.900;2023-11-21T01:03:19;1.16;88.68
70676;DHT22;59069;52.242;20.900;2023-11-21T01:05:45;1.11;88.63
70676;DHT22;59069;52.242;20.900;2023-11-21T01:08:11;1.07;88.54
70676;DHT22;59069;52.242;20.900;2023-11-21T01:10:36;1.05;88.54
70676;DHT22;59069;52.242;20.900;2023-11-21T01:13:02;1.07;88.62
70676;DHT22;59069;52.242;20.900;2023-11-21T01:15:30;1.07;88.60
70676;DHT22;59069;52.242;20.900;2023-11-21T01:17:55;1.10;88.46
70676;DHT22;59069;52.242;20.900;2023-11-21T01:20:21;1.07;88.47
70676;DHT22;59069;52.242;20.900;2023-11-21T01:22:46;1.05;88.40
70676;DHT22;59069;52.242;20.900;2023-11-21T01:25:14;1.07;88.34
70676;DHT22;59069;52.242;20.900;2023-11-21T01:27:41;1.04;88.27
70676;DHT22;59069;52.242;20.900;2023-11-21T01:30:07;1.03;88.52
70676;DHT22;59069;52.242;20.900;2023-11-21T01:32:33;1.04;88.47
70676;DHT22;59069;52.242;20.900;2023-11-21T01:34:59;1.04;88.14
70676;DHT22;59069;52.242;20.900;2023-11-21T01:37:25;1.07;88.28
70676;DHT22;59069;52.242;20.900;2023-11-21T01:39:55;1.05;88.06
70676;DHT22;59069;52.242;20.900;2023-11-21T01:42:21;1.04;87.95
70676;DHT22;59069;52.242;20.900;2023-11-21T01:44:46;0.99;87.96
70676;DHT22;59069;52.242;20.900;2023-11-21T01:47:13;0.97;88.04
70676;DHT22;59069;52.242;20.900;2023-11-21T01:49:39;0.94;88.08
70676;DHT22;59069;52.242;20.900;2023-11-21T01:52:06;0.90;88.00
70676;DHT22;59069;52.242;20.900;2023-11-21T01:54:32;0.89;88.04
70676;DHT22;59069;52.242;20.900;2023-11-21T01:56:58;0.89;87.96
70676;DHT22;59069;52.242;20.900;2023-11-21T01:59:33;0.90;87.89
70676;DHT22;59069;52.242;20.900;2023-11-21T02:01:59;0.91;88.06
70676;DHT22;59069;52.242;20.900;2023-11-21T02:04:24;0.93;88.00
70676;DHT22;59069;52.242;20.900;2023-11-21T02:06:50;0.91;87.86
70676;DHT22;59069;52.242;20.900;2023-11-21T02:09:16;0.91;87.70
70676;DHT22;59069;52.242;20.900;2023-11-21T02:11:43;0.87;87.57
70676;DHT22;59069;52.242;20.900;2023-11-21T02:14:09;0.84;87.62
70676;DHT22;59069;52.242;20.900;2023-11-21T02:16:35;0.83;87.65
70676;DHT22;59069;52.242;20.900;2023-11-21T02:19:02;0.81;87.75
70676;DHT22;59069;52.242;20.900;2023-11-21T02:21:30;0.79;87.81
70676;DHT22;59069;52.242;20.900;2023-11-21T02:23:56;0.77;87.81
70676;DHT22;59069;52.242;20.900;2023-11-21T02:26:21;0.79;87.85
70676;DHT22;59069;52.242;20.900;2023-11-21T02:28:47;0.80;87.84
70676;DHT22;59069;52.242;20.900;2023-11-21T02:31:13;0.77;87.90
70676;DHT22;59069;52.242;20.900;2023-11-21T02:33:38;0.76;87.78
70676;DHT22;59069;52.242;20.900;2023-11-21T02:36:04;0.75;87.87
70676;DHT22;59069;52.242;20.900;2023-11-21T02:38:31;0.77;87.94
70676;DHT22;59069;52.242;20.900;2023-11-21T02:40:57;0.83;87.76
70676;DHT22;59069;52.242;20.900;2023-11-21T02:43:24;0.77;87.82
70676;DHT22;59069;52.242;20.900;2023-11-21T02:45:50;0.76;87.76
70676;DHT22;59069;52.242;20.900;2023-11-21T02:48:15;0.76;87.65
70676;DHT22;59069;52.242;20.900;2023-11-21T02:50:40;0.76;87.68
70676;DHT22;59069;52.242;20.900;2023-11-21T02:53:06;0.76;87.72
70676;DHT22;59069;52.242;20.900;2023-11-21T02:55:32;0.73;87.64
70676;DHT22;59069;52.242;20.900;2023-11-21T02:58:01;0.73;87.58
70676;DHT22;59069;52.242;20.900;2023-11-21T03:00:26;0.72;87.54
70676;DHT22;59069;52.242;20.900;2023-11-21T03:02:52;0.70;87.56
70676;DHT22;59069;52.242;20.900;2023-11-21T03:05:18;0.72;87.71
70676;DHT22;59069;52.242;20.900;2023-11-21T03:07:44;0.75;87.78
70676;DHT22;59069;52.242;20.900;2023-11-21T03:10:09;0.76;87.64
70676;DHT22;59069;52.242;20.900;2023-11-21T03:12:39;0.73;87.45
70676;DHT22;59069;52.242;20.900;2023-11-21T03:15:08;0.73;87.41
70676;DHT22;59069;52.242;20.900;2023-11-21T03:17:35;0.76;87.47
70676;DHT22;59069;52.242;20.900;2023-11-21T03:20:00;0.77;87.37
70676;DHT22;59069;52.242;20.900;2023-11-21T03:22:26;0.80;87.49
70676;DHT22;59069;52.242;20.900;2023-11-21T03:24:52;0.79;87.49
70676;DHT22;59069;52.242;20.900;2023-11-21T03:27:18;0.75;87.39
70676;DHT22;59069;52.242;20.900;2023-11-21T03:29:44;0.75;87.32
70676;DHT22;59069;52.242;20.900;2023-11-21T03:32:10;0.75;87.50
70676;DHT22;59069;52.242;20.900;2023-11-21T03:34:53;0.72;87.26
70676;DHT22;59069;52.242;20.900;2023-11-21T03:37:20;0.69;87.22
70676;DHT22;59069;52.242;20.900;2023-11-21T03:39:46;0.63;87.10
70676;DHT22;59069;52.242;20.900;2023-11-21T03:42:11;0.58;87.31
70676;DHT22;59069;52.242;20.900;2023-11-21T03:44:36;0.56;87.52
70676;DHT22;59069;52.242;20.900;2023-11-21T03:47:02;0.53;87.49
70676;DHT22;59069;52.242;20.900;2023-11-21T03:49:27;0.55;87.60
70676;DHT22;59069;52.242;20.900;2023-11-21T03:51:55;0.55;87.71
70676;DHT22;59069;52.242;20.900;2023-11-21T03:54:21;0.55;87.64
70676;DHT22;59069;52.242;20.900;2023-11-21T03:56:46;0.53;87.52
70676;DHT22;59069;52.242;20.900;2023-11-21T03:59:11;0.53;87.57
70676;DHT22;59069;52.242;20.900;2023-11-21T04:01:37;0.53;87.55
70676;DHT22;59069;52.242;20.900;2023-11-21T04:04:03;0.55;87.70
70676;DHT22;59069;52.242;20.900;2023-11-21T04:06:29;0.49;87.82
70676;DHT22;59069;52.242;20.900;2023-11-21T04:08:55;0.53;87.68
70676;DHT22;59069;52.242;20.900;2023-11-21T04:11:20;0.55;87.76
70676;DHT22;59069;52.242;20.900;2023-11-21T04:13:46;0.58;87.87
70676;DHT22;59069;52.242;20.900;2023-11-21T04:16:12;0.58;87.98
70676;DHT22;59069;52.242;20.900;2023-11-21T04:18:38;0.60;87.75
70676;DHT22;59069;52.242;20.900;2023-11-21T04:21:07;0.58;87.69
70676;DHT22;59069;52.242;20.900;2023-11-21T04:23:33;0.58;87.70
70676;DHT22;59069;52.242;20.900;2023-11-21T04:25:59;0.49;87.64
70676;DHT22;59069;52.242;20.900;2023-11-21T04:28:25;0.46;87.64
70676;DHT22;59069;52.242;20.900;2023-11-21T04:30:51;0.44;87.65
70676;DHT22;59069;52.242;20.900;2023-11-21T04:33:16;0.42;87.77
70676;DHT22;59069;52.242;20.900;2023-11-21T04:35:42;0.41;87.77
70676;DHT22;59069;52.242;20.900;2023-11-21T04:38:07;0.36;87.68
70676;DHT22;59069;52.242;20.900;2023-11-21T04:40:33;0.35;87.66
70676;DHT22;59069;52.242;20.900;2023-11-21T04:42:58;0.33;87.78
70676;DHT22;59069;52.242;20.900;2023-11-21T04:45:24;0.30;87.65
70676;DHT22;59069;52.242;20.900;2023-11-21T04:47:49;0.28;87.68
70676;DHT22;59069;52.242;20.900;2023-11-21T04:50:14;0.28;87.72
70676;DHT22;59069;52.242;20.900;2023-11-21T04:52:40;0.25;87.78
70676;DHT22;59069;52.242;20.900;2023-11-21T04:55:06;0.19;87.73
70676;DHT22;59069;52.242;20.900;2023-11-21T04:57:35;0.19;87.69
70676;DHT22;59069;52.242;20.900;2023-11-21T05:00:01;0.17;87.67
70676;DHT22;59069;52.242;20.900;2023-11-21T05:02:26;0.14;87.62
70676;DHT22;59069;52.242;20.900;2023-11-21T05:04:52;0.12;87.80
70676;DHT22;59069;52.242;20.900;2023-11-21T05:07:18;0.12;87.82
70676;DHT22;59069;52.242;20.900;2023-11-21T05:09:44;0.12;87.81
70676;DHT22;59069;52.242;20.900;2023-11-21T05:12:11;0.12;87.81
70676;DHT22;59069;52.242;20.900;2023-11-21T05:14:36;0.15;87.80
70676;DHT22;59069;52.242;20.900;2023-11-21T05:17:02;0.17;87.78
70676;DHT22;59069;52.242;20.900;2023-11-21T05:19:29;0.15;87.75
70676;DHT22;59069;52.242;20.900;2023-11-21T05:21:55;0.12;87.76
70676;DHT22;59069;52.242;20.900;2023-11-21T05:24:20;0.15;87.83
70676;DHT22;59069;52.242;20.900;2023-11-21T05:26:45;0.17;87.90
70676;DHT22;59069;52.242;20.900;2023-11-21T05:29:11;0.14;87.83
70676;DHT22;59069;52.242;20.900;2023-11-21T05:31:36;0.15;87.84
70676;DHT22;59069;52.242;20.900;2023-11-21T05:34:03;0.15;87.67
70676;DHT22;59069;52.242;20.900;2023-11-21T05:36:30;0.15;87.61
70676;DHT22;59069;52.242;20.900;2023-11-21T05:38:56;0.15;87.56
70676;DHT22;59069;52.242;20.900;2023-11-21T05:41:21;0.15;87.66
70676;DHT22;59069;52.242;20.900;2023-11-21T05:43:46;0.11;87.68
70676;DHT22;59069;52.242;20.900;2023-11-21T05:46:12;0.14;87.55
70676;DHT22;59069;52.242;20.900;2023-11-21T05:48:38;0.12;87.47
70676;DHT22;59069;52.242;20.900;2023-11-21T05:51:06;0.11;87.50
70676;DHT22;59069;52.242;20.900;2023-11-21T05:53:33;0.09;87.47
70676;DHT22;59069;52.242;20.900;2023-11-21T05:55:59;0.09;87.52
70676;DHT22;59069;52.242;20.900;2023-11-21T05:58:24;0.11;87.45
70676;DHT22;59069;52.242;20.900;2023-11-21T06:00:50;0.08;87.49
70676;DHT22;59069;52.242;20.900;2023-11-21T06:03:15;0.11;87.57
70676;DHT22;59069;52.242;20.900;2023-11-21T06:05:42;0.09;87.63
70676;DHT22;59069;52.242;20.900;2023-11-21T06:08:08;0.12;87.65
70676;DHT22;59069;52.242;20.900;2023-11-21T06:10:34;0.12;87.56
70676;DHT22;59069;52.242;20.900;2023-11-21T06:12:59;0.12;87.58
70676;DHT22;59069;52.242;20.900;2023-11-21T06:15:25;0.14;87.55
70676;DHT22;59069;52.242;20.900;2023-11-21T06:17:51;0.14;87.51
70676;DHT22;59069;52.242;20.900;2023-11-21T06:20:19;0.18;87.43
70676;DHT22;59069;52.242;20.900;2023-11-21T06:22:47;0.17;87.52
70676;DHT22;59069;52.242;20.900;2023-11-21T06:25:13;0.19;87.63
70676;DHT22;59069;52.242;20.900;2023-11-21T06:27:41;0.21;87.59
70676;DHT22;59069;52.242;20.900;2023-11-21T06:30:08;0.19;87.33
70676;DHT22;59069;52.242;20.900;2023-11-21T06:32:35;0.19;87.40
70676;DHT22;59069;52.242;20.900;2023-11-21T06:35:04;0.19;87.46
70676;DHT22;59069;52.242;20.900;2023-11-21T06:37:30;0.14;87.55
70676;DHT22;59069;52.242;20.900;2023-11-21T06:39:57;0.14;87.61
70676;DHT22;59069;52.242;20.900;2023-11-21T06:42:26;0.17;87.71
70676;DHT22;59069;52.242;20.900;2023-11-21T06:44:52;0.17;87.54
70676;DHT22;59069;52.242;20.900;2023-11-21T06:47:19;0.12;87.51
70676;DHT22;59069;52.242;20.900;2023-11-21T06:49:50;0.11;87.54
70676;DHT22;59069;52.242;20.900;2023-11-21T06:52:16;0.09;87.66
70676;DHT22;59069;52.242;20.900;2023-11-21T06:54:42;0.09;87.81
70676;DHT22;59069;52.242;20.900;2023-11-21T06:57:07;0.12;87.74
70676;DHT22;59069;52.242;20.900;2023-11-21T06:59:33;0.18;87.75
70676;DHT22;59069;52.242;20.900;2023-11-21T07:01:59;0.18;87.70
70676;DHT22;59069;52.242;20.900;2023-11-21T07:04:24;0.17;87.77
70676;DHT22;59069;52.242;20.900;2023-11-21T07:06:53;0.21;87.74
70676;DHT22;59069;52.242;20.900;2023-11-21T07:09:19;0.22;87.73
70676;DHT22;59069;52.242;20.900;2023-11-21T07:11:48;0.21;87.62
70676;DHT22;59069;52.242;20.900;2023-11-21T07:14:14;0.22;87.71
70676;DHT22;59069;52.242;20.900;2023-11-21T07:16:40;0.25;87.71
70676;DHT22;59069;52.242;20.900;2023-11-21T07:19:06;0.25;87.55
70676;DHT22;59069;52.242;20.900;2023-11-21T07:21:35;0.25;87.37
70676;DHT22;59069;52.242;20.900;2023-11-21T07:24:04;0.21;87.30
70676;DHT22;59069;52.242;20.900;2023-11-21T07:26:31;0.21;87.39
70676;DHT22;59069;52.242;20.900;2023-11-21T07:28:57;0.19;87.43
70676;DHT22;59069;52.242;20.900;2023-11-21T07:31:22;0.21;87.44
70676;DHT22;59069;52.242;20.900;2023-11-21T07:33:49;0.19;87.51
70676;DHT22;59069;52.242;20.900;2023-11-21T07:36:16;0.18;87.40
70676;DHT22;59069;52.242;20.900;2023-11-21T07:38:43;0.21;87.48
70676;DHT22;59069;52.242;20.900;2023-11-21T07:41:09;0.22;87.51
70676;DHT22;59069;52.242;20.900;2023-11-21T07:43:35;0.22;87.43
70676;DHT22;59069;52.242;20.900;2023-11-21T07:46:01;0.26;87.44
70676;DHT22;59069;52.242;20.900;2023-11-21T07:48:30;0.29;87.33
70676;DHT22;59069;52.242;20.900;2023-11-21T07:50:57;0.29;87.31
70676;DHT22;59069;52.242;20.900;2023-11-21T07:53:24;0.32;87.21
70676;DHT22;59069;52.242;20.900;2023-11-21T07:55:51;0.32;87.24
70676;DHT22;59069;52.242;20.900;2023-11-21T07:58:16;0.30;87.23
70676;DHT22;59069;52.242;20.900;2023-11-21T08:00:41;0.33;87.13
70676;DHT22;59069;52.242;20.900;2023-11-21T08:03:07;0.35;87.08
70676;DHT22;59069;52.242;20.900;2023-11-21T08:05:33;0.36;87.02
70676;DHT22;59069;52.242;20.900;2023-11-21T08:07:58;0.38;87.03
70676;DHT22;59069;52.242;20.900;2023-11-21T08:10:23;0.39;87.06
70676;DHT22;59069;52.242;20.900;2023-11-21T08:12:50;0.44;86.84
70676;DHT22;59069;52.242;20.900;2023-11-21T08:15:15;0.45;86.91
70676;DHT22;59069;52.242;20.900;2023-11-21T08:17:41;0.44;86.81
70676;DHT22;59069;52.242;20.900;2023-11-21T08:20:07;0.45;86.90
70676;DHT22;59069;52.242;20.900;2023-11-21T08:22:34;0.49;86.84
70676;DHT22;59069;52.242;20.900;2023-11-21T08:24:59;0.50;86.86
70676;DHT22;59069;52.242;20.900;2023-11-21T08:27:25;0.50;86.75
70676;DHT22;59069;52.242;20.900;2023-11-21T08:29:50;0.53;86.87
70676;DHT22;59069;52.242;20.900;2023-11-21T08:32:18;0.55;86.83
70676;DHT22;59069;52.242;20.900;2023-11-21T08:34:43;0.62;86.67
70676;DHT22;59069;52.242;20.900;2023-11-21T08:37:10;0.65;86.61
70676;DHT22;59069;52.242;20.900;2023-11-21T08:39:37;0.67;86.52
70676;DHT22;59069;52.242;20.900;2023-11-21T08:42:03;0.70;86.47
70676;DHT22;59069;52.242;20.900;2023-11-21T08:44:29;0.75;86.21
70676;DHT22;59069;52.242;20.900;2023-11-21T08:46:55;0.73;86.06
70676;DHT22;59069;52.242;20.900;2023-11-21T08:49:21;0.76;85.96
70676;DHT22;59069;52.242;20.900;2023-11-21T08:51:46;0.77;85.90
70676;DHT22;59069;52.242;20.900;2023-11-21T08:54:12;0.75;85.76
70676;DHT22;59069;52.242;20.900;2023-11-21T08:56:37;0.72;85.67
70676;DHT22;59069;52.242;20.900;2023-11-21T08:59:03;0.70;85.57
70676;DHT22;59069;52.242;20.900;2023-11-21T09:01:29;0.67;85.61
70676;DHT22;59069;52.242;20.900;2023-11-21T09:03:57;0.70;85.59
70676;DHT22;59069;52.242;20.900;2023-11-21T09:06:23;0.65;85.58
70676;DHT22;59069;52.242;20.900;2023-11-21T09:08:49;0.69;85.71
70676;DHT22;59069;52.242;20.900;2023-11-21T09:11:14;0.70;85.75
70676;DHT22;59069;52.242;20.900;2023-11-21T09:13:40;0.75;85.84
70676;DHT22;59069;52.242;20.900;2023-11-21T09:16:05;0.75;85.82
70676;DHT22;59069;52.242;20.900;2023-11-21T09:18:32;0.79;85.85
70676;DHT22;59069;52.242;20.900;2023-11-21T09:20:57;0.87;85.72
70676;DHT22;59069;52.242;20.900;2023-11-21T09:23:24;0.89;85.59
70676;DHT22;59069;52.242;20.900;2023-11-21T09:25:49;0.90;85.54
70676;DHT22;59069;52.242;20.900;2023-11-21T09:28:17;0.91;85.39
70676;DHT22;59069;52.242;20.900;2023-11-21T09:30:43;0.94;85.24
70676;DHT22;59069;52.242;20.900;2023-11-21T09:33:09;0.91;85.26
70676;DHT22;59069;52.242;20.900;2023-11-21T09:35:37;0.93;85.17
70676;DHT22;59069;52.242;20.900;2023-11-21T09:38:03;0.91;85.14
70676;DHT22;59069;52.242;20.900;2023-11-21T09:40:35;0.93;85.06
70676;DHT22;59069;52.242;20.900;2023-11-21T09:43:01;0.96;84.98
70676;DHT22;59069;52.242;20.900;2023-11-21T09:45:35;1.00;85.15
70676;DHT22;59069;52.242;20.900;2023-11-21T09:48:01;1.00;85.04
70676;DHT22;59069;52.242;20.900;2023-11-21T09:50:27;1.00;84.74
70676;DHT22;59069;52.242;20.900;2023-11-21T09:55:42;1.00;84.81
70676;DHT22;59069;52.242;20.900;2023-11-21T09:58:09;1.01;84.95
70676;DHT22;59069;52.242;20.900;2023-11-21T10:00:41;1.04;84.51
70676;DHT22;59069;52.242;20.900;2023-11-21T10:03:08;1.07;84.28
70676;DHT22;59069;52.242;20.900;2023-11-21T10:05:35;1.11;84.44
70676;DHT22;59069;52.242;20.900;2023-11-21T10:08:00;1.07;84.41
70676;DHT22;59069;52.242;20.900;2023-11-21T10:10:27;1.07;84.45
70676;DHT22;59069;52.242;20.900;2023-11-21T10:13:02;1.08;84.38
70676;DHT22;59069;52.242;20.900;2023-11-21T10:15:29;1.08;84.08
70676;DHT22;59069;52.242;20.900;2023-11-21T10:17:55;1.07;84.02
70676;DHT22;59069;52.242;20.900;2023-11-21T10:20:23;1.11;84.18
70676;DHT22;59069;52.242;20.900;2023-11-21T10:22:50;1.14;84.24
70676;DHT22;59069;52.242;20.900;2023-11-21T10:25:15;1.16;84.02
70676;DHT22;59069;52.242;20.900;2023-11-21T10:27:42;1.17;83.97
70676;DHT22;59069;52.242;20.900;2023-11-21T10:30:09;1.17;83.95
70676;DHT22;59069;52.242;20.900;2023-11-21T10:32:41;1.21;83.92
70676;DHT22;59069;52.242;20.900;2023-11-21T10:35:07;1.27;83.73
70676;DHT22;59069;52.242;20.900;2023-11-21T10:37:44;1.34;83.61
70676;DHT22;59069;52.242;20.900;2023-11-21T10:40:10;1.34;83.29
70676;DHT22;59069;52.242;20.900;2023-11-21T10:42:39;1.38;83.37
70676;DHT22;59069;52.242;20.900;2023-11-21T10:45:08;1.40;83.20
70676;DHT22;59069;52.242;20.900;2023-11-21T10:47:44;1.37;83.18
70676;DHT22;59069;52.242;20.900;2023-11-21T10:50:09;1.37;82.59
70676;DHT22;59069;52.242;20.900;2023-11-21T10:52:37;1.34;82.51
70676;DHT22;59069;52.242;20.900;2023-11-21T10:55:24;1.30;82.49
70676;DHT22;59069;52.242;20.900;2023-11-21T10:57:53;1.26;82.57
70676;DHT22;59069;52.242;20.900;2023-11-21T11:00:19;1.21;82.94
70676;DHT22;59069;52.242;20.900;2023-11-21T11:02:53;1.16;83.01
70676;DHT22;59069;52.242;20.900;2023-11-21T11:05:25;1.14;83.12
70676;DHT22;59069;52.242;20.900;2023-11-21T11:08:04;1.14;83.09
70676;DHT22;59069;52.242;20.900;2023-11-21T11:10:31;1.14;83.11
70676;DHT22;59069;52.242;20.900;2023-11-21T11:12:57;1.16;83.29
70676;DHT22;59069;52.242;20.900;2023-11-21T11:15:24;1.13;83.38
70676;DHT22;59069;52.242;20.900;2023-11-21T11:17:50;1.13;83.44
70676;DHT22;59069;52.242;20.900;2023-11-21T11:20:16;1.11;83.41
70676;DHT22;59069;52.242;20.900;2023-11-21T11:26:12;1.04;82.93
70676;DHT22;59069;52.242;20.900;2023-11-21T11:34:16;1.04;82.98
70676;DHT22;59069;52.242;20.900;2023-11-21T11:36:49;1.00;82.95
70676;DHT22;59069;52.242;20.900;2023-11-21T11:42:03;1.00;82.90
70676;DHT22;59069;52.242;20.900;2023-11-21T11:52:52;1.01;82.93
70676;DHT22;59069;52.242;20.900;2023-11-21T11:55:19;1.03;82.97
70676;DHT22;59069;52.242;20.900;2023-11-21T11:57:48;1.03;82.89
70676;DHT22;59069;52.242;20.900;2023-11-21T12:00:44;1.01;83.01
70676;DHT22;59069;52.242;20.900;2023-11-21T12:03:13;1.03;83.18
70676;DHT22;59069;52.242;20.900;2023-11-21T12:05:40;1.05;83.17
70676;DHT22;59069;52.242;20.900;2023-11-21T12:08:07;1.11;83.10
70676;DHT22;59069;52.242;20.900;2023-11-21T12:10:35;1.16;82.79
70676;DHT22;59069;52.242;20.900;2023-11-21T12:13:06;1.13;82.69
70676;DHT22;59069;52.242;20.900;2023-11-21T12:15:33;1.08;82.59
70676;DHT22;59069;52.242;20.900;2023-11-21T12:17:59;1.08;82.72
70676;DHT22;59069;52.242;20.900;2023-11-21T12:20:25;1.03;82.77
70676;DHT22;59069;52.242;20.900;2023-11-21T12:22:53;1.01;82.80
70676;DHT22;59069;52.242;20.900;2023-11-21T12:25:23;1.03;82.80
70676;DHT22;59069;52.242;20.900;2023-11-21T12:27:51;1.01;82.91
70676;DHT22;59069;52.242;20.900;2023-11-21T12:30:19;1.03;82.60
70676;DHT22;59069;52.242;20.900;2023-11-21T12:32:48;1.03;82.48
70676;DHT22;59069;52.242;20.900;2023-11-21T12:35:14;1.00;82.15
70676;DHT22;59069;52.242;20.900;2023-11-21T12:37:41;0.97;82.26
70676;DHT22;59069;52.242;20.900;2023-11-21T12:40:10;0.97;82.34
70676;DHT22;59069;52.242;20.900;2023-11-21T12:42:46;0.91;82.04
70676;DHT22;59069;52.242;20.900;2023-11-21T12:47:46;0.89;82.25
70676;DHT22;59069;52.242;20.900;2023-11-21T12:50:12;0.89;82.30
70676;DHT22;59069;52.242;20.900;2023-11-21T12:52:44;0.90;82.31
70676;DHT22;59069;52.242;20.900;2023-11-21T12:55:21;0.90;82.14
70676;DHT22;59069;52.242;20.900;2023-11-21T12:57:52;0.91;82.10
70676;DHT22;59069;52.242;20.900;2023-11-21T13:00:27;0.86;82.13
70676;DHT22;59069;52.242;20.900;2023-11-21T13:02:56;0.86;81.99
70676;DHT22;59069;52.242;20.900;2023-11-21T13:05:28;0.86;81.88
70676;DHT22;59069;52.242;20.900;2023-11-21T13:07:58;0.89;82.03
70676;DHT22;59069;52.242;20.900;2023-11-21T13:10:25;0.87;81.95
70676;DHT22;59069;52.242;20.900;2023-11-21T13:12:55;0.87;81.94
70676;DHT22;59069;52.242;20.900;2023-11-21T13:15:23;0.83;81.93
70676;DHT22;59069;52.242;20.900;2023-11-21T13:17:50;0.75;81.95
70676;DHT22;59069;52.242;20.900;2023-11-21T13:20:17;0.73;82.09
70676;DHT22;59069;52.242;20.900;2023-11-21T13:22:49;0.73;82.03
70676;DHT22;59069;52.242;20.900;2023-11-21T13:25:17;0.75;82.09
70676;DHT22;59069;52.242;20.900;2023-11-21T13:27:44;0.75;82.19
70676;DHT22;59069;52.242;20.900;2023-11-21T13:30:12;0.75;82.24
70676;DHT22;59069;52.242;20.900;2023-11-21T13:32:43;0.76;82.31
70676;DHT22;59069;52.242;20.900;2023-11-21T13:35:09;0.73;82.28
70676;DHT22;59069;52.242;20.900;2023-11-21T13:37:47;0.72;82.30
70676;DHT22;59069;52.242;20.900;2023-11-21T13:40:15;0.69;82.36
70676;DHT22;59069;52.242;20.900;2023-11-21T13:42:45;0.67;82.35
70676;DHT22;59069;52.242;20.900;2023-11-21T13:45:11;0.65;82.26
70676;DHT22;59069;52.242;20.900;2023-11-21T13:47:38;0.63;82.19
70676;DHT22;59069;52.242;20.900;2023-11-21T13:50:04;0.59;82.14
70676;DHT22;59069;52.242;20.900;2023-11-21T13:52:37;0.56;82.20
70676;DHT22;59069;52.242;20.900;2023-11-21T13:55:03;0.53;82.29
70676;DHT22;59069;52.242;20.900;2023-11-21T13:57:31;0.55;82.37
70676;DHT22;59069;52.242;20.900;2023-11-21T13:59:58;0.56;82.35
70676;DHT22;59069;52.242;20.900;2023-11-21T14:02:24;0.58;82.35
70676;DHT22;59069;52.242;20.900;2023-11-21T14:04:57;0.62;82.21
70676;DHT22;59069;52.242;20.900;2023-11-21T14:07:26;0.63;82.25
70676;DHT22;59069;52.242;20.900;2023-11-21T14:10:01;0.60;82.13
70676;DHT22;59069;52.242;20.900;2023-11-21T14:12:27;0.58;82.20
70676;DHT22;59069;52.242;20.900;2023-11-21T14:14:53;0.58;82.08
70676;DHT22;59069;52.242;20.900;2023-11-21T14:17:20;0.62;82.07
70676;DHT22;59069;52.242;20.900;2023-11-21T14:19:49;0.59;82.12
70676;DHT22;59069;52.242;20.900;2023-11-21T14:22:14;0.56;81.99
70676;DHT22;59069;52.242;20.900;2023-11-21T14:24:40;0.62;82.11
70676;DHT22;59069;52.242;20.900;2023-11-21T14:27:12;0.56;82.31
70676;DHT22;59069;52.242;20.900;2023-11-21T14:29:38;0.59;82.42
70676;DHT22;59069;52.242;20.900;2023-11-21T14:32:07;0.59;82.37
70676;DHT22;59069;52.242;20.900;2023-11-21T14:34:33;0.55;82.35
70676;DHT22;59069;52.242;20.900;2023-11-21T14:36:58;0.55;82.33
70676;DHT22;59069;52.242;20.900;2023-11-21T14:39:24;0.55;82.27
70676;DHT22;59069;52.242;20.900;2023-11-21T14:41:53;0.50;82.26
70676;DHT22;59069;52.242;20.900;2023-11-21T14:44:21;0.48;82.21
70676;DHT22;59069;52.242;20.900;2023-11-21T14:46:51;0.46;82.25
70676;DHT22;59069;52.242;20.900;2023-11-21T14:49:17;0.48;82.46
70676;DHT22;59069;52.242;20.900;2023-11-21T14:51:51;0.45;82.35
70676;DHT22;59069;52.242;20.900;2023-11-21T14:54:30;0.46;82.50
70676;DHT22;59069;52.242;20.900;2023-11-21T14:57:12;0.45;82.78
70676;DHT22;59069;52.242;20.900;2023-11-21T14:59:45;0.46;82.79
70676;DHT22;59069;52.242;20.900;2023-11-21T15:02:23;0.45;82.84
70676;DHT22;59069;52.242;20.900;2023-11-21T15:05:09;0.46;82.98
70676;DHT22;59069;52.242;20.900;2023-11-21T15:07:40;0.46;82.98
70676;DHT22;59069;52.242;20.900;2023-11-21T15:10:06;0.45;82.91
70676;DHT22;59069;52.242;20.900;2023-11-21T15:12:36;0.45;83.09
70676;DHT22;59069;52.242;20.900;2023-11-21T15:15:04;0.42;83.07
70676;DHT22;59069;52.242;20.900;2023-11-21T15:17:31;0.41;83.09
70676;DHT22;59069;52.242;20.900;2023-11-21T15:19:57;0.41;83.27
70676;DHT22;59069;52.242;20.900;2023-11-21T15:22:23;0.42;82.98
70676;DHT22;59069;52.242;20.900;2023-11-21T15:24:49;0.39;82.84
70676;DHT22;59069;52.242;20.900;2023-11-21T15:27:15;0.38;82.85
70676;DHT22;59069;52.242;20.900;2023-11-21T15:29:42;0.38;82.75
70676;DHT22;59069;52.242;20.900;2023-11-21T15:32:08;0.38;82.61
70676;DHT22;59069;52.242;20.900;2023-11-21T15:34:36;0.35;82.38
70676;DHT22;59069;52.242;20.900;2023-11-21T15:37:02;0.30;82.21
70676;DHT22;59069;52.242;20.900;2023-11-21T15:39:29;0.26;82.29
70676;DHT22;59069;52.242;20.900;2023-11-21T15:41:56;0.25;82.32
70676;DHT22;59069;52.242;20.900;2023-11-21T15:44:22;0.25;82.32
70676;DHT22;59069;52.242;20.900;2023-11-21T15:46:48;0.22;82.35
70676;DHT22;59069;52.242;20.900;2023-11-21T15:49:14;0.25;82.23
70676;DHT22;59069;52.242;20.900;2023-11-21T15:51:43;0.24;82.18
70676;DHT22;59069;52.242;20.900;2023-11-21T15:54:18;0.22;81.94
70676;DHT22;59069;52.242;20.900;2023-11-21T15:56:43;0.22;82.14